METAR AND TAF INFORMATION
METAR FOR PASM
ADDS - METARS form results

(0408 UTC 06 April 2020)
Data provider http://aviationweather.gov/metar/data/
 
METAR text: PASM 060405Z AUTO 26017G25KT 1SM -SN BR FEW010 BKN022 OVC028 M11/M12 A2979 RMK AO2 P0000 FZRANO
Conditions at: PASM (SAINT MARYS , AK, US) observed 0405 UTC 06 April 2020
Temperature: -11.0°C (12°F)
Dewpoint: -12.0°C (10°F) [RH = 92%]
Pressure (altimeter): 29.79 inches Hg (1008.9 mb)
Winds: from the W (260 degrees) at 20 MPH (17 knots; 8.7 m/s)
gusting to 29 MPH (25 knots; 12.9 m/s)
Visibility: 1.00 miles (1.61 km)
Ceiling: 2200 feet AGL
Clouds: few clouds at 1000 feet AGL
broken clouds at 2200 feet AGL
overcast cloud deck at 2800 feet AGL
Weather: -SN BR  (light snow, mist)

METAR text: PASM 060356Z AUTO 27022G26KT 3/4SM -SN BR FEW010 SCT014 OVC028 M11/M13 A2979 RMK AO2 PK WND 26032/0258 SLP098 P0000 T11061128 FZRANO
Conditions at: PASM (SAINT MARYS , AK, US) observed 0356 UTC 06 April 2020
Temperature: -10.6°C (13°F)
Dewpoint: -12.8°C ( 9°F) [RH = 84%]
Pressure (altimeter): 29.79 inches Hg (1008.9 mb)
[Sea-level pressure: 1009.8 mb]
Winds: from the W (270 degrees) at 25 MPH (22 knots; 11.3 m/s)
gusting to 30 MPH (26 knots; 13.4 m/s)
Visibility: 0.75 miles (1.21 km)
Ceiling: 2800 feet AGL
Clouds: few clouds at 1000 feet AGL
scattered clouds at 1400 feet AGL
overcast cloud deck at 2800 feet AGL
Weather: -SN BR  (light snow, mist)

METAR text: PASM 060354Z AUTO 27021G26KT 3/4SM -SN BR FEW010 SCT014 OVC028 M11/M13 A2979 RMK AO2 PK WND 26032/0258 P0000 FZRANO
Conditions at: PASM (SAINT MARYS , AK, US) observed 0354 UTC 06 April 2020
Temperature: -11.0°C (12°F)
Dewpoint: -13.0°C ( 9°F) [RH = 85%]
Pressure (altimeter): 29.79 inches Hg (1008.9 mb)
Winds: from the W (270 degrees) at 24 MPH (21 knots; 10.8 m/s)
gusting to 30 MPH (26 knots; 13.4 m/s)
Visibility: 0.75 miles (1.21 km)
Ceiling: 2800 feet AGL
Clouds: few clouds at 1000 feet AGL
scattered clouds at 1400 feet AGL
overcast cloud deck at 2800 feet AGL
Weather: -SN BR  (light snow, mist)

METAR text: PASM 060347Z AUTO 27023G30KT 3/4SM -SN BR BKN013 OVC028 M11/M12 A2978 RMK AO2 PK WND 26032/0258 P0000 FZRANO
Conditions at: PASM (SAINT MARYS , AK, US) observed 0347 UTC 06 April 2020
Temperature: -11.0°C (12°F)
Dewpoint: -12.0°C (10°F) [RH = 92%]
Pressure (altimeter): 29.78 inches Hg (1008.5 mb)
Winds: from the W (270 degrees) at 26 MPH (23 knots; 11.8 m/s)
gusting to 34 MPH (30 knots; 15.4 m/s)
Visibility: 0.75 miles (1.21 km)
Ceiling: 1300 feet AGL
Clouds: broken clouds at 1300 feet AGL
overcast cloud deck at 2800 feet AGL
Weather: -SN BR  (light snow, mist)

METAR text: PASM 060336Z AUTO 26021G29KT 1SM -SN BR SCT010 BKN015 OVC028 M11/M12 A2978 RMK AO2 PK WND 26032/0258 P0000 FZRANO
Conditions at: PASM (SAINT MARYS , AK, US) observed 0336 UTC 06 April 2020
Temperature: -11.0°C (12°F)
Dewpoint: -12.0°C (10°F) [RH = 92%]
Pressure (altimeter): 29.78 inches Hg (1008.5 mb)
Winds: from the W (260 degrees) at 24 MPH (21 knots; 10.8 m/s)
gusting to 33 MPH (29 knots; 14.9 m/s)
Visibility: 1.00 miles (1.61 km)
Ceiling: 1500 feet AGL
Clouds: scattered clouds at 1000 feet AGL
broken clouds at 1500 feet AGL
overcast cloud deck at 2800 feet AGL
Weather: -SN BR  (light snow, mist)

METAR text: PASM 060324Z AUTO 27025G29KT 3/4SM -SN BR SCT010 BKN015 OVC034 M11/M12 A2977 RMK AO2 PK WND 26032/0258 P0000 FZRANO
Conditions at: PASM (SAINT MARYS , AK, US) observed 0324 UTC 06 April 2020
Temperature: -11.0°C (12°F)
Dewpoint: -12.0°C (10°F) [RH = 92%]
Pressure (altimeter): 29.77 inches Hg (1008.2 mb)
Winds: from the W (270 degrees) at 29 MPH (25 knots; 12.9 m/s)
gusting to 33 MPH (29 knots; 14.9 m/s)
Visibility: 0.75 miles (1.21 km)
Ceiling: 1500 feet AGL
Clouds: scattered clouds at 1000 feet AGL
broken clouds at 1500 feet AGL
overcast cloud deck at 3400 feet AGL
Weather: -SN BR  (light snow, mist)

METAR text: PASM 060319Z AUTO 27023G29KT 1SM -SN BR BKN010 BKN015 OVC028 M11/M12 A2977 RMK AO2 PK WND 26032/0258 CIG 007V012 P0000 FZRANO
Conditions at: PASM (SAINT MARYS , AK, US) observed 0319 UTC 06 April 2020
Temperature: -11.0°C (12°F)
Dewpoint: -12.0°C (10°F) [RH = 92%]
Pressure (altimeter): 29.77 inches Hg (1008.2 mb)
Winds: from the W (270 degrees) at 26 MPH (23 knots; 11.8 m/s)
gusting to 33 MPH (29 knots; 14.9 m/s)
Visibility: 1.00 miles (1.61 km)
Ceiling: 1000 feet AGL
Clouds: broken clouds at 1000 feet AGL
broken clouds at 1500 feet AGL
overcast cloud deck at 2800 feet AGL
Weather: -SN BR  (light snow, mist)

 AIRPORT MAP

 RUNWAY INFORMATION
Runway 06 Runway length 1900 ft Runway width 60 ft
Runway elevation 311 ft Runway displaced threshold 0 ft Runway heading 77
Runway 24 Runway length 1900 ft Runway width 60 ft
Runway elevation 301 ft Runway displaced threshold 375 ft Runway heading 257
Runway 17 Runway length 6003 ft Runway width 150 ft
Runway elevation 282 ft Runway displaced threshold 0 ft Runway heading 182
Runway 35 Runway length 6003 ft Runway width 150 ft
Runway elevation 303 ft Runway displaced threshold 0 ft Runway heading 2

 AIRPORT FREQUENCIES
Type AWOS Name AWOS 3 Frequency 128.7 MHZ
Type CNTR Name ANCHORAGE Frequency 124 MHZ
Type CTAF Name CTAF Frequency 122.3 MHZ
Type FSS Name KENAI RDO Frequency 122.35 MHZ
Type MISC Name TWEB Frequency 23 MHZ

 AIRPORT NEAR NAVIGATION AIDS
Type NDB Name Saint Marys Frequency 230 KHZ



We are a FlightSim virtual group and are in no way affiliated with RavnAir Group.

Powered by Virtual Airlines Manager [v2.6.2]